Flight Track Log - Related Links

Times and Time Zones

All times are in EDT time to prevent confusion due to time zone crossing. See the N717AN flight status page for this flight to view local times or setup timezone preferences in your user account.

Time Position Orientation Groundspeed Altitude Reporting Facility
EDT Latitude Longitude Course Direction KTS MPH feet Rate Location/Type
Mon 11:27:40 PM 40.6310 -73.7780 360° North 92 106  Level FlightAware ADS-B
Mon 11:28:20 PM 40.6460 -73.8120 301° West 185 213 500 1,021 Climbing FlightAware ADS-B
Mon 11:28:27 PM 40.6480 -73.8190 291° West 187 215 800 2,500 Climbing FlightAware ADS-B
Mon 11:28:32 PM 40.6490 -73.8260 281° West 191 220 1,000 2,000 Climbing FlightAware ADS-B
Mon 11:28:57 PM 40.6390 -73.8530 244° Southwest 208 239 1,800 1,622 Climbing FlightAware ADS-B
Mon 11:29:09 PM 40.6300 -73.8650 225° Southwest 226 260 2,000 1,556 Climbing FlightAware ADS-B
Mon 11:29:24 PM 40.6190 -73.8790 224° Southwest 238 274 2,500 1,895 Climbing FlightAware ADS-B
Mon 11:29:28 PM 40.6160 -73.8810 207° Southwest 240 276 2,600 2,308 Climbing FlightAware ADS-B
Mon 11:29:37 PM 40.6050 -73.8850 195° South 250 288 3,000 2,432 Climbing FlightAware ADS-B
Mon 11:30:05 PM 40.5750 -73.8670 155° Southeast 261 300 4,100 2,333 Climbing FlightAware ADS-B
Mon 11:30:13 PM 40.5700 -73.8560 121° Southeast 265 305 4,400 1,385 Climbing FlightAware ADS-B
Mon 11:30:18 PM 40.5680 -73.8500 114° Southeast 269 310 4,400 1,000 Level FlightAware ADS-B
Mon 11:30:25 PM 40.5650 -73.8370 107° East 277 319 4,600 2,118 Climbing FlightAware ADS-B
Mon 11:30:35 PM 40.5618 -73.8218 105° East 279 321 5,000 2,077 Climbing FlightAware ADS-B
Mon 11:30:51 PM 40.5580 -73.7929 100° East 291 335 5,500 2,182 Climbing FlightAware ADS-B
Mon 11:31:08 PM 40.5546 -73.7624 98° East 298 343 6,200 2,500 Climbing FlightAware ADS-B
Mon 11:31:27 PM 40.5504 -73.7285 99° East 301 346 7,000 2,348 Climbing FlightAware ADS-B
Mon 11:31:31 PM 40.5490 -73.7212 104° East 304 350 7,100 2,250 Climbing FlightAware ADS-B
Mon 11:31:35 PM 40.5472 -73.7141 108° East 306 352 7,300 2,308 Climbing FlightAware ADS-B
Mon 11:31:44 PM 40.5422 -73.6990 114° Southeast 306 352 7,600 2,308 Climbing FlightAware ADS-B
Mon 11:31:48 PM 40.5398 -73.6931 118° Southeast 305 351 7,800 3,000 Climbing FlightAware ADS-B
Mon 11:31:54 PM 40.5352 -73.6826 120° Southeast 305 351 8,100 3,000 Climbing FlightAware ADS-B
Mon 11:32:00 PM 40.5308 -73.6729 121° Southeast 303 349 8,400 2,800 Climbing FlightAware ADS-B
Mon 11:32:09 PM 40.5248 -73.6599 121° Southeast 302 348 8,800 2,750 Climbing FlightAware ADS-B
Mon 11:32:24 PM 40.5144 -73.6359 120° Southeast 302 348 9,500 1,867 Climbing FlightAware ADS-B
Mon 11:32:54 PM 40.4924 -73.5868 120° Southeast 328 377 10,200 1,180 Climbing FlightAware ADS-B
Mon 11:33:25 PM 40.4660 -73.5310 122° Southeast 361 415 10,700 1,241 Climbing FlightAware ADS-B
Mon 11:33:52 PM 40.4408 -73.4791 123° Southeast 382 440 11,400 1,789 Climbing FlightAware ADS-B
Mon 11:34:22 PM 40.4110 -73.4195 123° Southeast 396 456 12,400 2,300 Climbing FlightAware ADS-B
Mon 11:34:52 PM 40.3812 -73.3580 122° Southeast 395 455 13,700 2,262 Climbing FlightAware ADS-B
Mon 11:35:23 PM 40.3516 -73.2957 122° Southeast 405 466 14,700 2,129 Climbing FlightAware ADS-B
Mon 11:35:54 PM 40.3191 -73.2301 123° Southeast 406 467 15,900 2,000 Climbing FlightAware ADS-B
Mon 11:36:29 PM 40.2790 -73.1606 127° Southeast 418 481 16,900 1,938 Climbing FlightAware ADS-B
Mon 11:36:59 PM 40.2436 -73.1003 128° Southeast 419 482 18,000 2,029 Climbing FlightAware ADS-B
Mon 11:37:37 PM 40.1982 -73.0231 128° Southeast 427 491 19,200 1,875 Climbing FlightAware ADS-B
Mon 11:38:19 PM 40.1471 -72.9364 128° Southeast 436 502 20,500 1,644 Climbing FlightAware ADS-B
Mon 11:38:50 PM 40.1110 -72.8750 128° Southeast 441 507 21,200 1,619 Climbing FlightAware ADS-B
Mon 11:39:22 PM 40.0684 -72.8032 128° Southeast 438 504 22,200 1,739 Climbing FlightAware ADS-B
Mon 11:39:59 PM 40.0230 -72.7270 128° Southeast 450 518 23,200 1,541 Climbing FlightAware ADS-B
Mon 11:40:36 PM 39.9750 -72.6460 128° Southeast 459 528 24,100 1,500 Climbing FlightAware ADS-B
Mon 11:41:11 PM 39.9290 -72.5690 128° Southeast 464 534 25,000 1,433 Climbing FlightAware ADS-B
Mon 11:41:43 PM 39.8822 -72.5018 132° Southeast 462 532 25,700 1,286 Climbing FlightAware ADS-B
Mon 11:41:53 PM 39.8645 -72.4855 145° Southeast 458 527 25,900 947 Climbing FlightAware ADS-B
Mon 11:42:02 PM 39.8470 -72.4728 151° Southeast 455 524 26,000 1,154 Climbing FlightAware ADS-B
Mon 11:42:19 PM 39.8136 -72.4565 159° South 450 518 26,400 1,125 Climbing FlightAware ADS-B
Mon 11:43:06 PM 39.7170 -72.4473 176° South 448 516 27,200 1,059 Climbing FlightAware ADS-B
Mon 11:43:10 PM 39.7093 -72.4471 179° South 450 518 27,300 1,333 Climbing FlightAware ADS-B
Mon 11:43:42 PM 39.6429 -72.4467 180° South 453 521 28,000 1,258 Climbing FlightAware ADS-B
Mon 11:44:12 PM 39.5789 -72.4462 180° South 456 525 28,600 741 Climbing FlightAware ADS-B
Mon 11:45:03 PM 39.4697 -72.4446 179° South 467 537 29,000 361 Climbing FlightAware ADS-B
Mon 11:45:35 PM 39.4070 -72.4430 179° South 465 535 29,100 419 Climbing FlightAware ADS-B
Mon 11:45:46 PM 39.3770 -72.4429 180° South 473 544 29,300 1,364 Climbing FlightAware ADS-B
Mon 11:46:19 PM 39.3037 -72.4396 178° South 472 543 30,100 1,406 Climbing FlightAware ADS-B
Mon 11:46:50 PM 39.2376 -72.4362 178° South 468 539 30,800 885 Climbing FlightAware ADS-B
Mon 11:47:20 PM 39.1729 -72.4332 178° South 463 533 31,000 197 Climbing FlightAware ADS-B
Mon 11:47:51 PM 39.1070 -72.4304 178° South 462 532 31,000  Level FlightAware ADS-B
Mon 11:48:21 PM 39.0430 -72.4277 178° South 461 531 31,000  Level FlightAware ADS-B
Mon 11:48:52 PM 38.9756 -72.4250 178° South 462 532 31,000  Level FlightAware ADS-B
Mon 11:49:22 PM 38.9112 -72.4223 178° South 463 533 31,000  Level FlightAware ADS-B
Mon 11:49:52 PM 38.8467 -72.4195 178° South 464 534 31,000  Level FlightAware ADS-B
Mon 11:50:23 PM 38.7821 -72.4167 178° South 464 534 31,000  Level FlightAware ADS-B
Mon 11:50:53 PM 38.7168 -72.4140 178° South 462 532 31,000  Level FlightAware ADS-B
Mon 11:51:23 PM 38.6529 -72.4113 178° South 460 529 31,000  Level FlightAware ADS-B
Mon 11:51:59 PM 38.5761 -72.4081 178° South 459 528 31,000  Level FlightAware ADS-B
Mon 11:52:30 PM 38.5101 -72.4052 178° South 459 528 31,000  Level FlightAware ADS-B
Mon 11:53:00 PM 38.4460 -72.4026 178° South 459 528 31,000  Level FlightAware ADS-B
Mon 11:53:32 PM 38.3780 -72.3997 178° South 459 528 31,000  Level FlightAware ADS-B
Mon 11:54:06 PM 38.3075 -72.3967 178° South 459 528 31,000  Level FlightAware ADS-B
Mon 11:54:22 PM 38.2726 -72.3948 178° South 461 531 31,000  Level FlightAware ADS-B
Mon 11:54:32 PM 38.2516 -72.3914 173° South 464 534 31,000  Level FlightAware ADS-B
Mon 11:54:41 PM 38.2328 -72.3860 167° South 468 539 31,000  Level FlightAware ADS-B
Mon 11:55:56 PM 38.1020 -72.2850 149° Southeast 477 549 31,000  Level FlightAware ADS-B
Mon 11:56:33 PM 38.0450 -72.2360 146° Southeast 477 549 31,000  Level FlightAware ADS-B
Mon 11:57:09 PM 37.9890 -72.1880 146° Southeast 477 549 31,000  Level FlightAware ADS-B
Mon 11:57:45 PM 37.9330 -72.1400 146° Southeast 477 549 31,000  Level FlightAware ADS-B
Mon 11:58:22 PM 37.8750 -72.0910 146° Southeast 477 549 31,000  Level FlightAware ADS-B
Mon 11:58:58 PM 37.8190 -72.0430 146° Southeast 477 549 31,000  Level FlightAware ADS-B
Mon 11:59:34 PM 37.7630 -71.9950 146° Southeast 477 549 31,000  Level FlightAware ADS-B
Tue 12:00:10 AM 37.7070 -71.9470 146° Southeast 477 549 31,000  Level FlightAware ADS-B
Tue 12:00:46 AM 37.6510 -71.9000 146° Southeast 477 549 31,000  Level FlightAware ADS-B
Tue 12:01:20 AM 37.5980 -71.8550 146° Southeast 477 549 31,000  Level FlightAware ADS-B
Tue 12:01:54 AM 37.5460 -71.8100 146° Southeast 477 549 31,000  Level FlightAware ADS-B
Tue 12:02:30 AM 37.4900 -71.7620 146° Southeast 477 549 31,000  Level FlightAware ADS-B
Tue 12:03:08 AM 37.4310 -71.7120 146° Southeast 477 549 31,000  Level FlightAware ADS-B
Tue 12:03:44 AM 37.3750 -71.6640 146° Southeast 477 549 31,000  Level FlightAware ADS-B
Tue 12:04:08 AM 37.3000 -71.3333 155° Southeast 491 565 31,000  Level New York Oceanic (ODAPS)
Tue 12:04:20 AM 37.3190 -71.6170 146° Southeast 477 549 31,000  Level FlightAware ADS-B
Tue 12:04:35 AM 37.2833 -71.3333 155° Southeast 490 564 31,000  Level New York Oceanic (ODAPS)
Tue 12:04:56 AM 37.2630 -71.5690 146° Southeast 477 549 31,000 -90 Level FlightAware ADS-B
Tue 12:05:42 AM 37.0583 -71.3078 155° Southeast 484 557 30,900 -57 Descending New York Center
Tue 12:06:42 AM 36.9522 -71.2317 150° Southeast 484 557 30,900 41 Level New York Center
Tue 12:08:07 AM 36.8167 -71.0500 155° Southeast 499 574 31,000 14 Climbing New York Oceanic (ODAPS)
Tue 12:14:00 AM 36.0294 -70.5985 155° Southeast 499 574 31,000  Level FlightAware Transoceanic
Tue 12:15:00 AM 35.8981 -70.5241 155° Southeast 499 574 31,000  Level FlightAware Transoceanic
Tue 12:16:00 AM 35.7667 -70.4500 168° South 499 574 31,000  Level FlightAware Transoceanic
Tue 12:16:59 AM 35.7667 -70.4500 168° South 485 558 31,000  Level New York Oceanic (ODAPS)
Tue 12:17:00 AM 35.6353 -70.4152 168° South 499 574 31,000  Level FlightAware Transoceanic
Tue 12:18:00 AM 35.5039 -70.3806 168° South 499 574 31,000  Level FlightAware Transoceanic
Tue 12:19:00 AM 35.3725 -70.3461 168° South 499 574 31,000  Level FlightAware Transoceanic
Tue 12:20:00 AM 35.2411 -70.3117 168° South 499 574 31,000  Level FlightAware Transoceanic
Tue 12:21:00 AM 35.1097 -70.2773 168° South 499 574 31,000  Level FlightAware Transoceanic
Tue 12:22:00 AM 34.9783 -70.2431 168° South 499 574 31,000  Level FlightAware Transoceanic
Tue 12:22:02 AM 35.0500 -70.2667 168° South 490 564 31,000  Level New York Oceanic (ODAPS)
Tue 12:23:00 AM 34.9564 -70.2375 168° South 485 558 31,000  Level FlightAware Transoceanic
Tue 12:24:00 AM 34.8213 -70.2025 168° South 485 558 31,000  Level FlightAware Transoceanic
Tue 12:25:00 AM 34.6862 -70.1675 168° South 485 558 31,000  Level FlightAware Transoceanic
Tue 12:26:00 AM 34.5511 -70.1328 168° South 485 558 31,000  Level FlightAware Transoceanic
Tue 12:27:00 AM 34.4160 -70.0981 168° South 485 558 31,000  Level FlightAware Transoceanic
Tue 12:28:00 AM 34.2475 -70.0589 168° South 490 564 31,000  Level FlightAware Transoceanic
Tue 12:29:00 AM 34.1137 -70.0246 168° South 490 564 31,000  Level FlightAware Transoceanic
Tue 12:30:00 AM 33.9799 -69.9905 168° South 490 564 31,000  Level FlightAware Transoceanic
Tue 12:31:00 AM 33.8461 -69.9565 168° South 490 564 31,000  Level FlightAware Transoceanic
Tue 12:32:00 AM 33.7122 -69.9226 168° South 490 564 31,000  Level FlightAware Transoceanic
Tue 12:33:00 AM 33.5784 -69.8887 168° South 490 564 31,000  Level FlightAware Transoceanic
Tue 12:34:00 AM 33.4446 -69.8550 168° South 490 564 31,000  Level FlightAware Transoceanic
Tue 12:34:56 AM 33.3000 -69.8167 168° South 495 570 31,000  Level New York Oceanic (ODAPS)
Tue 12:35:00 AM 33.3107 -69.8214 168° South 490 564 31,000  Level FlightAware Transoceanic
Tue 12:35:44 AM 33.1833 -69.7833 168° South 499 574 31,000  Level New York Oceanic (ODAPS)
Tue 12:36:00 AM 33.1769 -69.7879 168° South 490 564 31,000  Level FlightAware Transoceanic
Tue 12:37:00 AM 33.0430 -69.7545 168° South 490 564 31,000  Level FlightAware Transoceanic
Tue 12:37:36 AM 32.9333 -69.7167 168° South 497 572 31,000  Level New York Oceanic (ODAPS)
Tue 12:38:00 AM 32.9091 -69.7212 168° South 490 564 31,000  Level FlightAware Transoceanic
Tue 12:39:00 AM 32.7752 -69.6880 168° South 490 564 31,000  Level FlightAware Transoceanic
Tue 12:39:13 AM 32.9333 -69.7167 168° South 497 572 31,000  Level New York Oceanic (ODAPS)
Tue 12:40:00 AM 32.6413 -69.6549 168° South 490 564 31,000  Level FlightAware Transoceanic
Tue 12:41:00 AM 32.5003 -69.6188 168° South 495 570 31,000  Level FlightAware Transoceanic
Tue 12:42:00 AM 32.3274 -69.5739 168° South 499 574 31,000  Level FlightAware Transoceanic
Tue 12:43:00 AM 32.2558 -69.5532 169° South 497 572 31,000  Level FlightAware Transoceanic
Tue 12:44:00 AM 32.1202 -69.5208 169° South 497 572 31,000  Level FlightAware Transoceanic
Tue 12:45:00 AM 31.9847 -69.4884 169° South 497 572 31,000  Level FlightAware Transoceanic
Tue 12:46:00 AM 31.8491 -69.4562 169° South 497 572 31,000  Level FlightAware Transoceanic
Tue 12:47:00 AM 31.7136 -69.4241 169° South 497 572 31,000  Level FlightAware Transoceanic
Tue 12:48:00 AM 31.5780 -69.3921 169° South 497 572 31,000  Level FlightAware Transoceanic
Tue 12:49:00 AM 31.4424 -69.3602 169° South 497 572 31,000  Level FlightAware Transoceanic
Tue 12:49:36 AM 31.4000 -69.3500 169° South 552 635 31,000  Level New York Oceanic (ODAPS)
Tue 12:50:00 AM 31.3068 -69.3283 169° South 497 572 31,000  Level FlightAware Transoceanic
Tue 12:51:00 AM 31.1712 -69.2966 169° South 497 572 31,000  Level FlightAware Transoceanic
Tue 12:52:00 AM 31.0356 -69.2649 169° South 497 572 31,000  Level FlightAware Transoceanic
Tue 12:53:00 AM 30.9000 -69.2333 187° South 497 572 31,000  Level FlightAware Transoceanic
Tue 12:53:48 AM 30.9000 -69.2333 187° South 496 571 31,000  Level New York Oceanic (ODAPS)
Tue 12:54:00 AM 30.7596 -69.2539 187° South 497 572 31,000  Level FlightAware Transoceanic
Tue 12:55:00 AM 30.6257 -69.2734 187° South 552 635 31,000  Level FlightAware Transoceanic
Tue 12:56:00 AM 30.4885 -69.2934 187° South 552 635 31,000  Level FlightAware Transoceanic
Tue 12:57:00 AM 30.3514 -69.3133 187° South 552 635 31,000  Level FlightAware Transoceanic
Tue 12:58:00 AM 30.2142 -69.3331 187° South 552 635 31,000  Level FlightAware Transoceanic
Tue 12:59:00 AM 30.0770 -69.3529 187° South 552 635 31,000  Level FlightAware Transoceanic
Tue 01:00:00 AM 29.9399 -69.3726 187° South 496 571 31,000  Level FlightAware Transoceanic
Tue 01:01:00 AM 29.8027 -69.3923 187° South 496 571 31,000  Level FlightAware Transoceanic
Tue 01:01:41 AM 30.0000 -69.3500 187° South 490 564 31,000  Level New York Oceanic (ODAPS)
Tue 01:02:00 AM 29.6655 -69.4119 187° South 496 571 31,000  Level FlightAware Transoceanic
Tue 01:03:00 AM 29.5284 -69.4315 187° South 496 571 31,000  Level FlightAware Transoceanic
Tue 01:03:39 AM 29.5667 -69.4167 187° South 489 563 31,000  Level New York Oceanic (ODAPS)
Tue 01:04:00 AM 29.3912 -69.4510 187° South 496 571 31,000  Level FlightAware Transoceanic
Tue 01:05:00 AM 29.2540 -69.4705 187° South 496 571 31,000  Level FlightAware Transoceanic
Tue 01:06:00 AM 29.1168 -69.4899 187° South 496 571 31,000  Level FlightAware Transoceanic
Tue 01:07:00 AM 28.9796 -69.5092 187° South 496 571 31,000  Level FlightAware Transoceanic
Tue 01:08:00 AM 28.9192 -69.5069 187° South 490 564 31,000  Level FlightAware Transoceanic
Tue 01:09:00 AM 28.7610 -69.5323 187° South 489 563 31,000  Level FlightAware Transoceanic
Tue 01:10:00 AM 28.6267 -69.5514 187° South 489 563 31,000  Level FlightAware Transoceanic
Tue 01:11:00 AM 28.4924 -69.5705 187° South 489 563 31,000  Level FlightAware Transoceanic
Tue 01:12:00 AM 28.3581 -69.5895 187° South 489 563 31,000  Level FlightAware Transoceanic
Tue 01:13:00 AM 28.2238 -69.6085 187° South 489 563 31,000  Level FlightAware Transoceanic
Tue 01:14:00 AM 28.0895 -69.6274 187° South 489 563 31,000  Level FlightAware Transoceanic
Tue 01:15:00 AM 27.9552 -69.6462 187° South 489 563 31,000  Level FlightAware Transoceanic
Tue 01:16:00 AM 27.8209 -69.6650 187° South 489 563 31,000  Level FlightAware Transoceanic
Tue 01:17:00 AM 27.6866 -69.6838 187° South 489 563 31,000  Level FlightAware Transoceanic
Tue 01:17:29 AM 27.7000 -69.6833 187° South 486 559 31,000  Level New York Oceanic (ODAPS)
Tue 01:18:00 AM 27.5523 -69.7025 187° South 489 563 31,000  Level FlightAware Transoceanic
Tue 01:19:00 AM 27.4180 -69.7212 187° South 489 563 31,000  Level FlightAware Transoceanic
Tue 01:20:00 AM 27.2837 -69.7399 187° South 489 563 31,000  Level FlightAware Transoceanic
Tue 01:21:00 AM 27.1494 -69.7584 187° South 489 563 31,000  Level FlightAware Transoceanic
Tue 01:22:00 AM 27.0151 -69.7770 187° South 489 563 31,000  Level FlightAware Transoceanic
Tue 01:23:00 AM 26.8901 -69.7952 187° South 486 559 31,000  Level FlightAware Transoceanic
Tue 01:24:00 AM 26.7551 -69.8136 187° South 486 559 31,000  Level FlightAware Transoceanic
Tue 01:25:00 AM 26.6201 -69.8321 187° South 486 559 31,000  Level FlightAware Transoceanic
Tue 01:26:00 AM 26.4851 -69.8505 187° South 486 559 31,000  Level FlightAware Transoceanic
Tue 01:27:00 AM 26.3501 -69.8688 187° South 486 559 31,000  Level FlightAware Transoceanic
Tue 01:28:00 AM 26.2151 -69.8871 187° South 486 559 31,000  Level FlightAware Transoceanic
Tue 01:29:00 AM 26.0801 -69.9054 187° South 486 559 31,000  Level FlightAware Transoceanic
Tue 01:30:00 AM 25.9451 -69.9236 187° South 486 559 31,000  Level FlightAware Transoceanic
Tue 01:31:00 AM 25.8101 -69.9418 187° South 486 559 31,000  Level FlightAware Transoceanic
Tue 01:31:32 AM 25.8333 -69.9333 187° South 487 560 31,000  Level New York Oceanic (ODAPS)
Tue 01:32:00 AM 25.6751 -69.9599 187° South 486 559 31,000  Level FlightAware Transoceanic
Tue 01:33:00 AM 25.5401 -69.9780 187° South 486 559 31,000  Level FlightAware Transoceanic
Tue 01:34:00 AM 25.4051 -69.9961 187° South 486 559 31,000  Level FlightAware Transoceanic
Tue 01:35:00 AM 25.2700 -70.0141 187° South 486 559 31,000  Level FlightAware Transoceanic
Tue 01:36:00 AM 25.1350 -70.0321 187° South 486 559 31,000  Level FlightAware Transoceanic
Tue 01:36:17 AM 25.1608 -70.0339 178° South 487 560 31,000  Level Miami Center
Tue 01:37:00 AM 25.0000 -70.0500 178° South 487 560 31,000  Level FlightAware Transoceanic
Tue 01:37:19 AM 25.0072 -70.0492 185° South 498 573 31,000  Level Miami Center
Tue 01:38:00 AM 24.8639 -70.0444 178° South 487 560 31,000  Level FlightAware Transoceanic
Tue 01:38:17 AM 24.8819 -70.0494 180° South 498 573 31,000  Level Miami Center
Tue 01:39:00 AM 24.7278 -70.0388 178° South 487 560 31,000  Level FlightAware Transoceanic
Tue 01:39:17 AM 24.7461 -70.0433 178° South 498 573 31,000  Level Miami Center
Tue 01:40:00 AM 24.5917 -70.0333 178° South 487 560 31,000  Level FlightAware Transoceanic
Tue 01:40:17 AM 24.6081 -70.0372 178° South 498 573 31,000  Level Miami Center
Tue 01:41:00 AM 24.4556 -70.0277 178° South 487 560 31,000  Level FlightAware Transoceanic
Tue 01:41:19 AM 24.4722 -70.0308 178° South 498 573 31,000  Level Miami Center
Tue 01:42:17 AM 24.3344 -70.0294 179° South 498 573 31,000  Level Miami Center
Tue 01:43:17 AM 24.1939 -70.0144 174° South 503 579 31,000  Level Miami Center
Tue 01:44:17 AM 24.0558 -70.0061 177° South 498 573 31,000  Level Miami Center
Tue 01:45:19 AM 23.9156 -69.9956 176° South 498 573 31,000  Level Miami Center
Tue 01:46:18 AM 23.7769 -69.9781 173° South 504 580 31,000  Level Miami Center
Tue 01:47:17 AM 23.6433 -69.9742 178° South 504 580 31,000  Level Miami Center
Tue 01:48:17 AM 23.5050 -69.9611 175° South 504 580 31,000  Level Miami Center
Tue 01:49:17 AM 23.3669 -69.9528 177° South 499 574 31,000  Level Miami Center
Tue 01:50:17 AM 23.2267 -69.9400 175° South 499 574 31,000  Level Miami Center
Tue 01:51:17 AM 23.0908 -69.9339 178° South 499 574 31,000  Level Miami Center
Tue 01:52:17 AM 22.9544 -69.9208 175° South 499 574 31,000  Level Miami Center
Tue 01:53:17 AM 22.8164 -69.9103 176° South 499 574 31,000  Level Miami Center
Tue 01:54:20 AM 22.6825 -69.9017 177° South 499 574 31,000  Level Miami Center
Tue 01:55:19 AM 22.5481 -69.9247 189° South 499 574 31,000  Level Miami Center
Tue 01:56:19 AM 22.4236 -69.9828 203° Southwest 477 549 31,000  Level Miami Center
Tue 01:57:17 AM 22.2969 -70.0433 204° Southwest 493 567 31,000  Level Miami Center
Tue 01:58:17 AM 22.1747 -70.1056 205° Southwest 498 573 31,000  Level Miami Center
Tue 01:59:19 AM 22.0378 -70.1686 203° Southwest 493 567 31,000  Level Miami Center
Tue 02:00:17 AM 21.9131 -70.2306 205° Southwest 493 567 31,000  Level Miami Center
Tue 02:01:19 AM 21.7886 -70.2903 204° Southwest 493 567 31,000  Level Miami Center
Tue 02:02:20 AM 21.6642 -70.3544 206° Southwest 493 567 31,000  Level Miami Center
Tue 02:03:17 AM 21.5436 -70.4161 205° Southwest 493 567 31,000  Level Miami Center
Tue 02:04:17 AM 21.4097 -70.4492 193° South 487 560 31,000  Level Miami Center
Tue 02:05:17 AM 21.2783 -70.4044 162° South 470 541 31,000  Level Miami Center
Tue 02:06:18 AM 21.1508 -70.3461 157° South 475 547 31,000  Level Miami Center
Tue 02:07:20 AM 21.0181 -70.3125 167° South 480 552 31,000  Level Miami Center
Tue 02:08:18 AM 20.8853 -70.2744 165° South 485 558 31,000  Level Miami Center
Tue 02:14:13 AM 20.0700 -70.0760 165° South 506 582 31,000  Level FlightAware ADS-B
Tue 02:14:49 AM 20.0010 -70.0590 167° South 507 583 31,000  Level FlightAware ADS-B
Tue 02:15:25 AM 19.9310 -70.0420 167° South 507 583 31,000  Level FlightAware ADS-B
Tue 02:16:02 AM 19.8590 -70.0250 167° South 507 583 31,000  Level FlightAware ADS-B
Tue 02:16:38 AM 19.7890 -70.0070 166° South 507 583 31,000  Level FlightAware ADS-B
Tue 02:17:15 AM 19.6510 -69.9750 168° South 503 579 31,000  Level FlightAware ADS-B
Tue 02:17:45 AM 19.5850 -69.9590 167° South 501 577 31,000  Level FlightAware ADS-B
Tue 02:18:26 AM 19.4920 -69.9370 167° South 503 579 31,000  Level FlightAware ADS-B
Tue 02:19:03 AM 19.4070 -69.9160 167° South 502 578 31,000  Level FlightAware ADS-B
Tue 02:19:35 AM 19.3340 -69.8990 168° South 501 577 31,000  Level FlightAware ADS-B
Tue 02:20:11 AM 19.2530 -69.8800 168° South 501 577 31,000  Level FlightAware ADS-B
Tue 02:20:45 AM 19.1750 -69.8610 167° South 500 575 31,000  Level FlightAware ADS-B
Tue 02:21:21 AM 19.0940 -69.8410 167° South 500 575 31,000  Level FlightAware ADS-B
Tue 02:21:57 AM 19.0120 -69.8220 168° South 499 574 31,000  Level FlightAware ADS-B
Tue 02:22:33 AM 18.9290 -69.8020 167° South 500 575 31,000  Level FlightAware ADS-B
Tue 02:23:05 AM 18.8580 -69.7850 167° South 501 577 31,000  Level FlightAware ADS-B
Tue 02:23:33 AM 18.7950 -69.7700 167° South 502 578 31,000  Level FlightAware ADS-B
Tue 02:24:09 AM 18.7120 -69.7500 167° South 503 579 31,000  Level FlightAware ADS-B
Tue 02:24:45 AM 18.6310 -69.7310 167° South 501 577 31,000  Level FlightAware ADS-B
Tue 02:25:22 AM 18.5470 -69.7110 167° South 501 577 31,000  Level FlightAware ADS-B
Tue 02:25:53 AM 18.4770 -69.6940 167° South 501 577 31,000  Level FlightAware ADS-B
Tue 02:26:30 AM 18.3940 -69.6750 168° South 500 575 31,000  Level FlightAware ADS-B
Tue 02:27:05 AM 18.3140 -69.6560 167° South 500 575 31,000  Level FlightAware ADS-B
Tue 02:27:41 AM 18.2310 -69.6360 167° South 499 574 31,000  Level FlightAware ADS-B
Tue 02:28:13 AM 18.1590 -69.6190 167° South 499 574 31,000  Level FlightAware ADS-B
Tue 02:28:50 AM 18.0790 -69.6000 167° South 499 574 31,000  Level FlightAware ADS-B
Tue 02:29:23 AM 18.0010 -69.5820 168° South 499 574 31,000  Level FlightAware ADS-B
Tue 02:30:01 AM 17.9140 -69.5610 167° South 501 577 31,000  Level FlightAware ADS-B
Tue 02:30:37 AM 17.8330 -69.5420 167° South 500 575 31,000  Level FlightAware ADS-B
Tue 02:31:09 AM 17.7630 -69.5260 168° South 499 574 31,000  Level FlightAware ADS-B
Tue 02:31:45 AM 17.6810 -69.5060 167° South 498 573 31,000  Level FlightAware ADS-B
Tue 02:32:17 AM 17.6090 -69.4900 168° South 498 573 31,000  Level FlightAware ADS-B
Tue 02:32:53 AM 17.5280 -69.4710 167° South 500 575 31,000  Level FlightAware ADS-B
Tue 02:33:30 AM 17.4440 -69.4510 167° South 499 574 31,000  Level FlightAware ADS-B
Tue 02:34:06 AM 17.3640 -69.4320 167° South 499 574 31,000  Level FlightAware ADS-B
Tue 02:34:38 AM 17.2910 -69.4150 167° South 499 574 31,000  Level FlightAware ADS-B
Tue 02:35:13 AM 17.2110 -69.3960 167° South 499 574 31,000  Level FlightAware ADS-B
Tue 02:35:49 AM 17.1290 -69.3770 168° South 499 574 31,000  Level FlightAware ADS-B
Tue 02:36:25 AM 17.0510 -69.3590 168° South 496 571 31,000  Level FlightAware ADS-B
Tue 02:37:02 AM 16.9680 -69.3400 168° South 496 571 31,000  Level FlightAware ADS-B
Tue 02:37:35 AM 16.8970 -69.3230 167° South 495 570 31,000  Level FlightAware ADS-B
Tue 02:38:19 AM 16.8030 -69.3010 167° South 494 568 31,000  Level FlightAware ADS-B
Tue 02:38:55 AM 16.7350 -69.2840 167° South 494 568 31,000  Level FlightAware ADS-B
Tue 02:39:31 AM 16.6670 -69.2680 167° South 494 568 31,000  Level FlightAware ADS-B
Tue 02:40:07 AM 16.5980 -69.2510 167° South 494 568 31,000  Level FlightAware ADS-B
Tue 02:40:41 AM 16.5340 -69.2360 167° South 494 568 31,000  Level FlightAware ADS-B
Tue 02:41:19 AM 16.4620 -69.2190 167° South 494 568 31,000  Level FlightAware ADS-B
Tue 02:41:56 AM 16.3920 -69.2020 167° South 494 568 31,000  Level FlightAware ADS-B
Tue 02:42:30 AM 16.3280 -69.1860 167° South 494 568 31,000  Level FlightAware ADS-B
Tue 02:43:08 AM 16.2560 -69.1690 167° South 494 568 31,000  Level FlightAware ADS-B
Tue 02:43:44 AM 16.1880 -69.1530 167° South 494 568 31,000  Level FlightAware ADS-B
Tue 02:44:20 AM 16.1200 -69.1360 166° South 494 568 31,000  Level FlightAware ADS-B
Tue 02:44:55 AM 15.9150 -69.0950 169° South 491 565 31,000  Level FlightAware ADS-B
Tue 02:45:29 AM 15.8450 -69.0780 167° South 493 567 31,000  Level FlightAware ADS-B
Tue 02:46:04 AM 15.7600 -69.0580 167° South 494 568 31,000  Level FlightAware ADS-B
Tue 02:46:34 AM 15.6950 -69.0430 167° South 493 567 31,000  Level FlightAware ADS-B
Tue 02:47:14 AM 15.6010 -69.0210 167° South 494 568 31,000  Level FlightAware ADS-B
Tue 02:47:53 AM 15.5160 -69.0010 167° South 492 566 31,000  Level FlightAware ADS-B
Tue 02:48:24 AM 15.4520 -68.9860 167° South 492 566 31,000  Level FlightAware ADS-B
Tue 02:48:59 AM 15.3670 -68.9660 167° South 491 565 31,000  Level FlightAware ADS-B
Tue 02:49:35 AM 15.2870 -68.9470 167° South 491 565 31,000  Level FlightAware ADS-B
Tue 02:50:09 AM 15.2110 -68.9290 167° South 482 555 31,000  Level FlightAware ADS-B
Tue 02:50:45 AM 15.1320 -68.9110 168° South 481 554 31,000  Level FlightAware ADS-B
Tue 02:51:19 AM 15.0560 -68.8930 167° South 480 552 31,000  Level FlightAware ADS-B
Tue 02:51:55 AM 14.9770 -68.8740 167° South 480 552 31,000  Level FlightAware ADS-B
Tue 02:52:30 AM 14.9010 -68.8560 167° South 481 554 31,000  Level FlightAware ADS-B
Tue 02:53:05 AM 14.8220 -68.8380 168° South 481 554 31,000  Level FlightAware ADS-B
Tue 02:53:40 AM 14.7440 -68.8200 167° South 481 554 31,000  Level FlightAware ADS-B
Tue 02:54:16 AM 14.6660 -68.8020 167° South 481 554 31,000  Level FlightAware ADS-B
Tue 02:54:50 AM 14.5890 -68.7840 167° South 482 555 31,000  Level FlightAware ADS-B
Tue 02:55:26 AM 14.5110 -68.7650 167° South 491 565 31,000  Level FlightAware ADS-B
Tue 02:56:00 AM 14.4330 -68.7470 167° South 492 566 31,000  Level FlightAware ADS-B
Tue 02:56:36 AM 14.3540 -68.7290 168° South 494 568 31,000  Level FlightAware ADS-B
Tue 02:57:10 AM 14.2770 -68.7110 167° South 494 568 31,000  Level FlightAware ADS-B
Tue 02:57:45 AM 14.1980 -68.6930 168° South 495 570 31,000  Level FlightAware ADS-B
Tue 02:58:20 AM 14.1200 -68.6750 167° South 495 570 31,000  Level FlightAware ADS-B
Tue 02:58:55 AM 14.0400 -68.6560 167° South 496 571 31,000  Level FlightAware ADS-B
Tue 02:59:31 AM 13.9610 -68.6380 168° South 494 568 31,000  Level FlightAware ADS-B
Tue 02:59:55 AM 13.9060 -68.6250 167° South 494 568 31,000  Level FlightAware ADS-B
Tue 03:00:41 AM 13.8450 -68.6110 167° South 493 567 31,000  Level FlightAware ADS-B
Tue 03:01:17 AM 13.7230 -68.5830 167° South 493 567 31,000  Level FlightAware ADS-B
Tue 03:01:53 AM 13.6440 -68.5640 167° South 494 568 31,000  Level FlightAware ADS-B
Tue 03:02:12 AM 13.6000 -68.5540 168° South 494 568 31,000  Level FlightAware ADS-B
Tue 03:02:58 AM 13.4990 -68.5310 168° South 495 570 31,000  Level FlightAware ADS-B
Tue 03:03:37 AM 13.4090 -68.5100 167° South 497 572 31,000  Level FlightAware ADS-B
Tue 03:04:13 AM 13.3290 -68.4920 168° South 498 573 31,000  Level FlightAware ADS-B
Tue 03:04:52 AM 13.2400 -68.4710 167° South 492 566 31,000  Level FlightAware ADS-B
Tue 03:05:28 AM 13.1590 -68.4530 168° South 493 567 31,000  Level FlightAware ADS-B
Tue 03:06:02 AM 13.0810 -68.4350 167° South 492 566 31,000  Level FlightAware ADS-B
Tue 03:06:38 AM 13.0000 -68.4160 167° South 493 567 31,000  Level FlightAware ADS-B
Tue 03:07:12 AM 12.9230 -68.3980 167° South 495 570 31,000  Level FlightAware ADS-B
Tue 03:07:48 AM 12.8410 -68.3790 167° South 496 571 31,000  Level FlightAware ADS-B
Tue 03:08:22 AM 12.7630 -68.3620 168° South 496 571 31,000  Level FlightAware ADS-B
Tue 03:08:58 AM 12.6830 -68.3430 167° South 496 571 31,000  Level FlightAware ADS-B
Tue 03:09:32 AM 12.6020 -68.3250 168° South 497 572 31,000  Level FlightAware ADS-B
Tue 03:10:08 AM 12.5210 -68.3060 167° South 497 572 31,000  Level FlightAware ADS-B
Tue 03:10:42 AM 12.4430 -68.2880 167° South 496 571 31,000  Level FlightAware ADS-B
Tue 03:11:18 AM 12.3620 -68.2700 168° South 495 570 31,000  Level FlightAware ADS-B
Tue 03:11:55 AM 12.2940 -68.2540 167° South 493 567 31,000  Level FlightAware ADS-B
Tue 03:12:28 AM 12.2030 -68.2330 167° South 492 566 31,000  Level FlightAware ADS-B
Tue 03:13:03 AM 12.1230 -68.2150 168° South 493 567 31,000  Level FlightAware ADS-B
Tue 03:13:34 AM 12.0530 -68.1990 167° South 493 567 31,000  Level FlightAware ADS-B
Tue 03:14:18 AM 11.9520 -68.1760 167° South 492 566 31,000  Level FlightAware ADS-B
Tue 03:14:54 AM 11.8720 -68.1580 168° South 493 567 31,000  Level FlightAware ADS-B
Tue 03:15:28 AM 11.7930 -68.1400 167° South 492 566 31,000  Level FlightAware ADS-B
Tue 03:16:04 AM 11.7130 -68.1220 168° South 492 566 31,000  Level FlightAware ADS-B
Tue 03:16:38 AM 11.6350 -68.1040 167° South 491 565 31,000  Level FlightAware ADS-B
Tue 03:17:14 AM 11.5540 -68.0860 168° South 491 565 31,000  Level FlightAware ADS-B
Tue 03:17:48 AM 11.4770 -68.0680 167° South 492 566 31,000  Level FlightAware ADS-B
Tue 03:18:24 AM 11.3960 -68.0500 168° South 492 566 31,000  Level FlightAware ADS-B
Tue 03:18:58 AM 11.3190 -68.0320 167° South 491 565 31,000  Level FlightAware ADS-B
Tue 03:19:34 AM 11.2380 -68.0130 167° South 492 566 31,000  Level FlightAware ADS-B
Tue 03:20:09 AM 11.1580 -67.9950 168° South 492 566 31,000  Level FlightAware ADS-B
Tue 03:20:45 AM 11.0770 -67.9760 167° South 491 565 31,000  Level FlightAware ADS-B
Tue 03:21:20 AM 10.9970 -67.9580 168° South 497 572 31,000  Level FlightAware ADS-B
Tue 03:21:54 AM 10.9200 -67.9410 168° South 490 564 31,000  Level FlightAware ADS-B
Tue 03:22:30 AM 10.8390 -67.9230 168° South 491 565 31,000  Level FlightAware ADS-B
Tue 03:23:04 AM 10.7610 -67.9060 168° South 491 565 31,000  Level FlightAware ADS-B
Tue 03:23:40 AM 10.6800 -67.8880 168° South 491 565 31,000  Level FlightAware ADS-B
Tue 03:24:14 AM 10.6030 -67.8710 168° South 491 565 31,000  Level FlightAware ADS-B
Tue 03:24:55 AM 10.5110 -67.8510 168° South 491 565 31,000  Level FlightAware ADS-B
Tue 03:25:30 AM 10.4300 -67.8330 168° South 490 564 31,000  Level FlightAware ADS-B
Tue 03:26:06 AM 10.3500 -67.8150 168° South 491 565 31,000  Level FlightAware ADS-B
Tue 03:26:46 AM 10.2610 -67.7950 168° South 497 572 31,000  Level FlightAware ADS-B
Tue 03:27:16 AM 10.1970 -67.7810 168° South 496 571 31,000  Level FlightAware ADS-B
Tue 03:28:06 AM 10.0900 -67.7570 168° South 496 571 31,000  Level FlightAware ADS-B
Tue 03:28:41 AM 10.0150 -67.7400 167° South 496 571 31,000  Level FlightAware ADS-B
Tue 03:29:16 AM 9.9340 -67.7220 168° South 497 572 31,000  Level FlightAware ADS-B
Tue 03:30:00 AM 9.8240 -67.6980 168° South 497 572 31,000  Level FlightAware ADS-B
Tue 03:30:37 AM 9.7500 -67.6810 167° South 497 572 31,000  Level FlightAware ADS-B
Tue 03:31:13 AM 9.6820 -67.6650 167° South 497 572 31,000  Level FlightAware ADS-B
Tue 03:31:49 AM 9.6130 -67.6490 167° South 497 572 31,000  Level FlightAware ADS-B
Tue 03:32:26 AM 9.5430 -67.6320 167° South 497 572 31,000  Level FlightAware ADS-B
Tue 03:33:02 AM 9.4740 -67.6160 167° South 497 572 31,000  Level FlightAware ADS-B
Tue 03:33:39 AM 9.4040 -67.5990 167° South 497 572 31,000  Level FlightAware ADS-B
Tue 03:34:15 AM 9.3350 -67.5830 167° South 497 572 31,000  Level FlightAware ADS-B
Tue 03:34:51 AM 9.2670 -67.5670 167° South 497 572 31,000  Level FlightAware ADS-B
Tue 03:35:28 AM 9.1960 -67.5510 167° South 497 572 31,000  Level FlightAware ADS-B
Tue 03:36:04 AM 9.1280 -67.5350 167° South 497 572 31,000  Level FlightAware ADS-B
Tue 03:36:40 AM 9.0590 -67.5190 167° South 497 572 31,000  Level FlightAware ADS-B
Tue 03:37:16 AM 8.9910 -67.5030 167° South 497 572 31,000  Level FlightAware ADS-B
Tue 03:37:52 AM 8.9220 -67.4870 167° South 497 572 31,000  Level FlightAware ADS-B
Tue 03:38:28 AM 8.8530 -67.4710 167° South 497 572 31,000  Level FlightAware ADS-B
Tue 03:39:04 AM 8.7850 -67.4550 167° South 497 572 31,000  Level FlightAware ADS-B
Tue 03:39:40 AM 8.7160 -67.4390 167° South 497 572 31,000 21 Level FlightAware ADS-B
Tue 03:42:00 AM 8.4612 -67.2773 148° Southeast  Level Estimated
Tue 03:43:00 AM 8.3520 -67.2080 148° Southeast  Level Estimated
Tue 03:44:00 AM 8.2428 -67.1388 148° Southeast  Level Estimated
Tue 03:45:00 AM 8.1335 -67.0696 148° Southeast  Level Estimated
Tue 03:46:00 AM 8.0243 -67.0005 148° Southeast  Level Estimated
Tue 03:47:00 AM 7.9150 -66.9314 148° Southeast  Level Estimated
Tue 03:48:00 AM 7.8058 -66.8624 148° Southeast  Level Estimated
Tue 03:49:00 AM 7.6965 -66.7933 148° Southeast  Level Estimated
Tue 03:50:00 AM 7.5872 -66.7243 148° Southeast  Level Estimated
Tue 03:51:00 AM 7.4779 -66.6554 148° Southeast  Level Estimated
Tue 03:52:00 AM 7.3686 -66.5865 148° Southeast  Level Estimated
Tue 03:53:00 AM 7.2593 -66.5176 148° Southeast  Level Estimated
Tue 03:54:00 AM 7.1499 -66.4487 148° Southeast  Level Estimated
Tue 03:55:00 AM 7.0406 -66.3799 148° Southeast  Level Estimated
Tue 03:56:00 AM 6.9318 -66.3115 148° Southeast  Level Estimated
Tue 03:57:00 AM 6.8230 -66.2431 148° Southeast  Level Estimated
Tue 03:58:00 AM 6.7142 -66.1748 148° Southeast  Level Estimated
Tue 03:59:00 AM 6.6054 -66.1065 148° Southeast  Level Estimated
Tue 04:00:00 AM 6.4966 -66.0382 148° Southeast  Level Estimated
Tue 04:01:00 AM 6.3878 -65.9699 148° Southeast  Level Estimated
Tue 04:02:00 AM 6.2790 -65.9017 148° Southeast  Level Estimated
Tue 04:03:00 AM 6.1702 -65.8335 148° Southeast  Level Estimated
Tue 04:04:00 AM 6.0613 -65.7653 148° Southeast  Level Estimated
Tue 04:05:00 AM 5.9525 -65.6972 148° Southeast  Level Estimated
Tue 04:06:00 AM 5.8436 -65.6290 148° Southeast  Level Estimated
Tue 04:07:00 AM 5.7347 -65.5609 148° Southeast  Level Estimated
Tue 04:08:00 AM 5.6259 -65.4929 148° Southeast  Level Estimated
Tue 04:09:00 AM 5.5170 -65.4248 148° Southeast  Level Estimated
Tue 04:10:00 AM 5.4081 -65.3568 148° Southeast  Level Estimated
Tue 04:11:00 AM 5.2992 -65.2888 148° Southeast  Level Estimated
Tue 04:12:00 AM 5.1903 -65.2208 148° Southeast  Level Estimated
Tue 04:13:00 AM 5.0814 -65.1529 148° Southeast  Level Estimated
Tue 04:14:00 AM 4.9725 -65.0850 148° Southeast  Level Estimated
Tue 04:15:00 AM 4.8635 -65.0171 148° Southeast  Level Estimated
Tue 04:16:00 AM 4.7546 -64.9492 148° Southeast  Level Estimated
Tue 04:17:00 AM 4.6457 -64.8813 148° Southeast  Level Estimated
Tue 04:18:00 AM 4.5367 -64.8135 148° Southeast  Level Estimated
Tue 04:19:00 AM 4.4278 -64.7457 148° Southeast  Level Estimated
Tue 04:20:00 AM 4.3188 -64.6779 148° Southeast  Level Estimated
Tue 04:21:00 AM 4.2098 -64.6101 148° Southeast  Level Estimated
Tue 04:22:00 AM 4.1009 -64.5423 148° Southeast  Level Estimated
Tue 04:23:00 AM 3.9919 -64.4746 148° Southeast  Level Estimated
Tue 04:24:00 AM 3.8829 -64.4069 148° Southeast  Level Estimated
Tue 04:25:00 AM 3.7739 -64.3392 148° Southeast  Level Estimated
Tue 04:26:00 AM 3.6649 -64.2715 148° Southeast  Level Estimated
Tue 04:27:00 AM 3.5559 -64.2038 148° Southeast  Level Estimated
Tue 04:28:00 AM 3.4469 -64.1362 148° Southeast  Level Estimated
Tue 04:29:00 AM 3.3379 -64.0685 148° Southeast  Level Estimated
Tue 04:30:00 AM 3.2289 -64.0009 148° Southeast  Level Estimated
Tue 04:31:00 AM 3.1199 -63.9333 148° Southeast  Level Estimated
Tue 04:32:00 AM 3.0109 -63.8657 148° Southeast  Level Estimated
Tue 04:33:00 AM 2.9019 -63.7981 148° Southeast  Level Estimated
Tue 04:34:00 AM 2.7928 -63.7305 148° Southeast  Level Estimated
Tue 04:35:00 AM 2.6838 -63.6630 148° Southeast  Level Estimated
Tue 04:36:00 AM 2.5748 -63.5955 148° Southeast  Level Estimated
Tue 04:37:00 AM 2.4657 -63.5279 148° Southeast  Level Estimated
Tue 04:38:00 AM 2.3567 -63.4604 148° Southeast  Level Estimated
Tue 04:39:00 AM 2.2476 -63.3929 148° Southeast  Level Estimated
Tue 04:40:00 AM 2.1386 -63.3254 148° Southeast  Level Estimated
Tue 04:41:00 AM 2.0295 -63.2579 148° Southeast  Level Estimated
Tue 04:42:00 AM 1.9205 -63.1904 148° Southeast  Level Estimated
Tue 04:43:00 AM 1.8114 -63.1230 148° Southeast  Level Estimated
Tue 04:44:00 AM 1.7024 -63.0555 148° Southeast  Level Estimated
Tue 04:45:00 AM 1.5933 -62.9880 148° Southeast  Level Estimated
Tue 04:46:00 AM 1.4842 -62.9206 148° Southeast  Level Estimated
Tue 04:47:00 AM 1.3751 -62.8531 148° Southeast  Level Estimated
Tue 04:48:00 AM 1.2661 -62.7857 148° Southeast  Level Estimated
Tue 04:49:00 AM 1.1570 -62.7183 148° Southeast  Level Estimated
Tue 04:50:00 AM 1.0479 -62.6508 148° Southeast  Level Estimated
Tue 04:51:00 AM 0.9389 -62.5834 148° Southeast  Level Estimated
Tue 04:52:00 AM 0.8298 -62.5160 148° Southeast  Level Estimated
Tue 04:53:00 AM 0.7207 -62.4486 148° Southeast  Level Estimated
Tue 04:54:00 AM 0.6116 -62.3812 148° Southeast  Level Estimated
Tue 04:55:00 AM 0.5026 -62.3138 148° Southeast  Level Estimated
Tue 04:56:00 AM 0.3935 -62.2463 148° Southeast  Level Estimated
Tue 04:57:00 AM 0.2844 -62.1790 148° Southeast  Level Estimated
Tue 04:58:00 AM 0.1753 -62.1115 148° Southeast  Level Estimated
Tue 04:59:00 AM 0.0662 -62.0442 148° Southeast  Level Estimated
Tue 05:00:00 AM -0.0428 -61.9767 148° Southeast  Level Estimated
Tue 05:01:00 AM -0.1519 -61.9094 148° Southeast  Level Estimated
Tue 05:02:00 AM -0.2610 -61.8419 148° Southeast  Level Estimated
Tue 05:03:00 AM -0.3701 -61.7746 148° Southeast  Level Estimated
Tue 05:04:00 AM -0.4792 -61.7071 148° Southeast  Level Estimated
Tue 05:05:00 AM -0.5882 -61.6397 148° Southeast  Level Estimated
Tue 05:06:00 AM -0.6973 -61.5723 148° Southeast  Level Estimated
Tue 05:07:00 AM -0.8064 -61.5049 148° Southeast  Level Estimated
Tue 05:08:00 AM -0.9155 -61.4375 148° Southeast  Level Estimated
Tue 05:09:00 AM -1.0246 -61.3701 148° Southeast  Level Estimated
Tue 05:10:00 AM -1.1336 -61.3026 148° Southeast  Level Estimated
Tue 05:11:00 AM -1.2427 -61.2352 148° Southeast  Level Estimated
Tue 05:12:00 AM -1.3518 -61.1678 148° Southeast  Level Estimated
Tue 05:13:00 AM -1.4608 -61.1003 148° Southeast  Level Estimated
Tue 05:14:00 AM -1.5699 -61.0329 148° Southeast  Level Estimated
Tue 05:15:00 AM -1.6790 -60.9654 148° Southeast  Level Estimated
Tue 05:15:17 AM -1.9920 -61.2040 148° Southeast 473 544 33,000  Level FlightAware ADS-B
Tue 05:15:55 AM -2.0370 -61.1490 129° Southeast 473 544 33,000  Level FlightAware ADS-B
Tue 05:16:31 AM -2.0790 -61.0970 129° Southeast 473 544 33,000  Level FlightAware ADS-B
Tue 05:17:09 AM -2.1680 -61.0320 144° Southeast 467 537 33,000  Level FlightAware ADS-B
Tue 05:17:41 AM -2.2270 -60.9940 147° Southeast 465 535 33,000  Level FlightAware ADS-B
Tue 05:18:17 AM -2.2880 -60.9480 143° Southeast 465 535 33,000  Level FlightAware ADS-B
Tue 05:18:53 AM -2.3480 -60.8970 140° Southeast 468 539 33,000  Level FlightAware ADS-B
Tue 05:19:27 AM -2.4040 -60.8500 140° Southeast 468 539 33,000  Level FlightAware ADS-B
Tue 05:20:03 AM -2.4630 -60.8000 140° Southeast 468 539 33,000  Level FlightAware ADS-B
Tue 05:20:39 AM -2.5230 -60.7490 140° Southeast 469 540 33,000  Level FlightAware ADS-B
Tue 05:21:15 AM -2.5890 -60.7050 146° Southeast 468 539 33,000  Level FlightAware ADS-B
Tue 05:21:47 AM -2.6480 -60.6710 150° Southeast 467 537 33,000  Level FlightAware ADS-B
Tue 05:22:24 AM -2.7180 -60.6320 151° Southeast 467 537 33,000  Level FlightAware ADS-B
Tue 05:22:59 AM -2.7850 -60.5940 150° Southeast 467 537 33,000  Level FlightAware ADS-B
Tue 05:23:35 AM -2.8530 -60.5550 150° Southeast 466 536 33,000  Level FlightAware ADS-B
Tue 05:24:09 AM -2.9160 -60.5190 150° Southeast 465 535 33,000  Level FlightAware ADS-B
Tue 05:24:45 AM -2.9820 -60.4820 151° Southeast 464 534 33,000  Level FlightAware ADS-B
Tue 05:25:20 AM -3.0490 -60.4450 151° Southeast 465 535 33,000  Level FlightAware ADS-B
Tue 05:25:52 AM -3.1100 -60.4100 150° Southeast 465 535 33,000  Level FlightAware ADS-B
Tue 05:26:29 AM -3.1780 -60.3720 151° Southeast 464 534 33,000  Level FlightAware ADS-B
Tue 05:27:04 AM -3.2450 -60.3360 152° Southeast 462 532 33,000  Level FlightAware ADS-B
Tue 05:27:40 AM -3.3130 -60.2980 151° Southeast 462 532 33,000  Level FlightAware ADS-B
Tue 05:28:12 AM -3.3710 -60.2660 151° Southeast 463 533 33,000  Level FlightAware ADS-B
Tue 05:28:46 AM -3.4350 -60.2290 150° Southeast 463 533 33,000  Level FlightAware ADS-B
Tue 05:29:26 AM -3.5020 -60.1770 142° Southeast 467 537 33,000  Level FlightAware ADS-B
Tue 05:29:58 AM -3.5560 -60.1320 140° Southeast 466 536 33,000  Level FlightAware ADS-B
Tue 05:30:32 AM -3.6150 -60.0840 141° Southeast 466 536 33,000  Level FlightAware ADS-B
Tue 05:31:08 AM -3.6750 -60.0360 141° Southeast 466 536 33,000  Level FlightAware ADS-B
Tue 05:31:44 AM -3.7350 -59.9860 140° Southeast 467 537 33,000  Level FlightAware ADS-B
Tue 05:32:20 AM -3.7940 -59.9350 139° Southeast 468 539 33,000  Level FlightAware ADS-B
Tue 05:32:58 AM -3.8520 -59.8760 135° Southeast 470 541 33,000  Level FlightAware ADS-B
Tue 05:33:36 AM -3.9050 -59.8120 130° Southeast 473 544 33,000  Level FlightAware ADS-B
Tue 05:34:12 AM -3.9420 -59.7410 118° Southeast 469 540 33,000  Level FlightAware ADS-B
Tue 05:34:48 AM -3.9720 -59.6710 113° Southeast 469 540 33,000  Level FlightAware ADS-B
Tue 05:35:22 AM -4.0020 -59.6030 114° Southeast 471 542 33,000  Level FlightAware ADS-B
Tue 05:35:54 AM -4.0330 -59.5400 116° Southeast 468 539 33,000  Level FlightAware ADS-B
Tue 05:36:30 AM -4.0790 -59.4780 127° Southeast 466 536 33,000  Level FlightAware ADS-B
Tue 05:37:06 AM -4.1400 -59.4290 141° Southeast 466 536 33,000  Level FlightAware ADS-B
Tue 05:37:38 AM -4.2020 -59.4000 155° Southeast 466 536 33,000  Level FlightAware ADS-B
Tue 05:38:16 AM -4.2670 -59.3750 159° South 466 536 33,000  Level FlightAware ADS-B
Tue 05:38:53 AM -4.3300 -59.3500 158° South 466 536 33,000  Level FlightAware ADS-B
Tue 05:39:30 AM -4.3940 -59.3260 159° South 466 536 33,000  Level FlightAware ADS-B
Tue 05:40:07 AM -4.4570 -59.3010 158° South 466 536 33,000  Level FlightAware ADS-B
Tue 05:40:43 AM -4.5190 -59.2780 160° South 466 536 33,000  Level FlightAware ADS-B
Tue 05:41:19 AM -4.5800 -59.2540 159° South 466 536 33,000  Level FlightAware ADS-B
Tue 05:41:44 AM -4.6230 -59.2370 158° South 466 536 33,000  Level FlightAware ADS-B
Tue 05:42:36 AM -4.7120 -59.2030 159° South 466 536 33,000  Level FlightAware ADS-B
Tue 05:43:12 AM -4.7730 -59.1800 159° South 466 536 33,000  Level FlightAware ADS-B
Tue 05:43:48 AM -4.8350 -59.1560 159° South 466 536 33,000  Level FlightAware ADS-B
Tue 05:44:24 AM -4.8970 -59.1320 159° South 466 536 33,000  Level FlightAware ADS-B
Tue 05:45:00 AM -4.9580 -59.1080 159° South 466 536 33,000  Level FlightAware ADS-B
Tue 05:45:36 AM -5.0200 -59.0850 160° South 466 536 33,000  Level FlightAware ADS-B
Tue 05:46:12 AM -5.0810 -59.0610 159° South 466 536 33,000  Level FlightAware ADS-B
Tue 05:46:48 AM -5.1430 -59.0370 159° South 466 536 33,000  Level FlightAware ADS-B
Tue 05:47:24 AM -5.2050 -59.0130 159° South 466 536 33,000 16 Level FlightAware ADS-B
Tue 05:49:00 AM -5.3768 -58.9038 148° Southeast  Level Estimated
Tue 05:50:00 AM -5.4841 -58.8354 148° Southeast  Level Estimated
Tue 05:51:00 AM -5.5915 -58.7671 148° Southeast  Level Estimated
Tue 05:52:00 AM -5.6988 -58.6988 148° Southeast  Level Estimated
Tue 05:53:00 AM -5.8062 -58.6304 148° Southeast  Level Estimated
Tue 05:54:00 AM -5.9135 -58.5620 148° Southeast  Level Estimated
Tue 05:55:00 AM -6.0208 -58.4935 148° Southeast  Level Estimated
Tue 05:56:00 AM -6.1281 -58.4251 148° Southeast  Level Estimated
Tue 05:57:00 AM -6.2354 -58.3566 148° Southeast  Level Estimated
Tue 05:58:00 AM -6.3427 -58.2881 148° Southeast  Level Estimated
Tue 05:59:00 AM -6.4500 -58.2195 148° Southeast  Level Estimated
Tue 06:00:00 AM -6.5573 -58.1509 148° Southeast  Level Estimated
Tue 06:01:00 AM -6.6646 -58.0823 148° Southeast  Level Estimated
Tue 06:02:00 AM -6.7718 -58.0137 148° Southeast  Level Estimated
Tue 06:03:00 AM -6.8791 -57.9450 148° Southeast  Level Estimated
Tue 06:04:00 AM -6.9863 -57.8763 148° Southeast  Level Estimated
Tue 06:05:00 AM -7.0935 -57.8076 148° Southeast  Level Estimated
Tue 06:06:00 AM -7.2008 -57.7388 148° Southeast  Level Estimated
Tue 06:07:00 AM -7.3080 -57.6701 148° Southeast  Level Estimated
Tue 06:08:00 AM -7.4152 -57.6012 148° Southeast  Level Estimated
Tue 06:09:00 AM -7.5220 -57.5326 148° Southeast  Level Estimated
Tue 06:10:00 AM -7.6288 -57.4640 147° Southeast  Level Estimated
Tue 06:11:00 AM -7.7356 -57.3953 147° Southeast  Level Estimated
Tue 06:12:00 AM -7.8423 -57.3266 147° Southeast  Level Estimated
Tue 06:13:00 AM -7.9491 -57.2578 147° Southeast  Level Estimated
Tue 06:14:00 AM -8.0558 -57.1890 147° Southeast  Level Estimated
Tue 06:15:00 AM -8.1626 -57.1202 147° Southeast  Level Estimated
Tue 06:16:00 AM -8.2693 -57.0513 147° Southeast  Level Estimated
Tue 06:17:00 AM -8.3760 -56.9824 147° Southeast  Level Estimated
Tue 06:18:00 AM -8.4827 -56.9135 147° Southeast  Level Estimated
Tue 06:19:00 AM -8.5894 -56.8445 147° Southeast  Level Estimated
Tue 06:20:00 AM -8.6961 -56.7755 147° Southeast  Level Estimated
Tue 06:21:00 AM -8.8028 -56.7065 147° Southeast  Level Estimated
Tue 06:22:00 AM -8.9094 -56.6374 147° Southeast  Level Estimated
Tue 06:23:00 AM -9.0161 -56.5682 147° Southeast  Level Estimated
Tue 06:24:00 AM -9.1227 -56.4991 147° Southeast  Level Estimated
Tue 06:25:00 AM -9.2293 -56.4299 147° Southeast  Level Estimated
Tue 06:26:00 AM -9.3359 -56.3606 147° Southeast  Level Estimated
Tue 06:27:00 AM -9.4425 -56.2913 147° Southeast  Level Estimated
Tue 06:28:00 AM -9.5491 -56.2220 147° Southeast  Level Estimated
Tue 06:29:00 AM -9.6554 -56.1527 147° Southeast  Level Estimated
Tue 06:30:00 AM -9.7618 -56.0834 147° Southeast  Level Estimated
Tue 06:31:00 AM -9.8682 -56.0140 147° Southeast  Level Estimated
Tue 06:32:00 AM -9.9745 -55.9446 147° Southeast  Level Estimated
Tue 06:33:00 AM -10.0808 -55.8752 147° Southeast  Level Estimated
Tue 06:34:00 AM -10.1871 -55.8057 147° Southeast  Level Estimated
Tue 06:35:00 AM -10.2934 -55.7362 147° Southeast  Level Estimated
Tue 06:36:00 AM -10.3997 -55.6666 147° Southeast  Level Estimated
Tue 06:37:00 AM -10.5059 -55.5970 147° Southeast  Level Estimated
Tue 06:38:00 AM -10.6122 -55.5273 147° Southeast  Level Estimated
Tue 06:39:00 AM -10.7184 -55.4576 147° Southeast  Level Estimated
Tue 06:40:00 AM -10.8246 -55.3878 147° Southeast  Level Estimated
Tue 06:41:00 AM -10.9308 -55.3180 147° Southeast  Level Estimated
Tue 06:42:00 AM -11.0370 -55.2481 147° Southeast  Level Estimated
Tue 06:43:00 AM -11.1432 -55.1782 147° Southeast  Level Estimated
Tue 06:44:00 AM -11.2493 -55.1082 147° Southeast  Level Estimated
Tue 06:45:00 AM -11.3556 -55.0381 147° Southeast  Level Estimated
Tue 06:46:00 AM -11.4619 -54.9679 147° Southeast  Level Estimated
Tue 06:47:00 AM -11.5682 -54.8976 147° Southeast  Level Estimated
Tue 06:48:00 AM -11.6745 -54.8273 147° Southeast  Level Estimated
Tue 06:49:00 AM -11.7807 -54.7569 147° Southeast  Level Estimated
Tue 06:50:00 AM -11.8870 -54.6865 147° Southeast  Level Estimated
Tue 06:51:00 AM -11.9932 -54.6160 147° Southeast  Level Estimated
Tue 06:52:00 AM -12.0994 -54.5455 147° Southeast  Level Estimated
Tue 06:53:00 AM -12.2056 -54.4749 147° Southeast  Level Estimated
Tue 06:54:00 AM -12.3117 -54.4043 147° Southeast  Level Estimated
Tue 06:55:00 AM -12.4179 -54.3336 147° Southeast  Level Estimated
Tue 06:56:00 AM -12.5240 -54.2628 147° Southeast  Level Estimated
Tue 06:57:00 AM -12.6301 -54.1920 147° Southeast  Level Estimated
Tue 06:58:00 AM -12.7362 -54.1212 147° Southeast  Level Estimated
Tue 06:59:00 AM -12.8423 -54.0502 147° Southeast  Level Estimated
Tue 07:00:00 AM -12.9483 -53.9792 147° Southeast  Level Estimated
Tue 07:01:00 AM -13.0543 -53.9082 147° Southeast  Level Estimated
Tue 07:02:00 AM -13.1604 -53.8371 147° Southeast  Level Estimated
Tue 07:03:00 AM -13.2663 -53.7659 147° Southeast  Level Estimated
Tue 07:04:00 AM -13.3723 -53.6947 147° Southeast  Level Estimated
Tue 07:05:00 AM -13.4783 -53.6234 147° Southeast  Level Estimated
Tue 07:06:00 AM -13.5842 -53.5520 147° Southeast  Level Estimated
Tue 07:07:00 AM -13.6901 -53.4806 147° Southeast  Level Estimated
Tue 07:08:00 AM -13.7960 -53.4091 147° Southeast  Level Estimated
Tue 07:09:00 AM -13.9019 -53.3375 147° Southeast  Level Estimated
Tue 07:10:00 AM -14.0077 -53.2659 147° Southeast  Level Estimated
Tue 07:11:00 AM -14.1136 -53.1942 147° Southeast  Level Estimated
Tue 07:12:00 AM -14.2194 -53.1225 147° Southeast  Level Estimated
Tue 07:13:00 AM -14.3250 -53.0508 147° Southeast  Level Estimated
Tue 07:14:00 AM -14.4305 -52.9790 147° Southeast  Level Estimated
Tue 07:15:00 AM -14.5361 -52.9072 147° Southeast  Level Estimated
Tue 07:16:00 AM -14.6416 -52.8353 147° Southeast  Level Estimated
Tue 07:17:00 AM -14.7472 -52.7633 147° Southeast  Level Estimated
Tue 07:18:00 AM -14.8526 -52.6913 147° Southeast  Level Estimated
Tue 07:19:00 AM -14.9581 -52.6192 147° Southeast  Level Estimated
Tue 07:20:00 AM -15.0636 -52.5470 147° Southeast  Level Estimated
Tue 07:21:00 AM -15.1690 -52.4747 147° Southeast  Level Estimated
Tue 07:22:00 AM -15.2744 -52.4024 147° Southeast  Level Estimated
Tue 07:23:00 AM -15.3798 -52.3300 146° Southeast  Level Estimated
Tue 07:24:00 AM -15.4847 -52.2578 146° Southeast  Level Estimated
Tue 07:25:00 AM -15.5897 -52.1855 146° Southeast  Level Estimated
Tue 07:26:00 AM -15.6946 -52.1132 146° Southeast  Level Estimated
Tue 07:27:00 AM -15.7996 -52.0407 146° Southeast  Level Estimated
Tue 07:28:00 AM -15.9044 -51.9682 146° Southeast  Level Estimated
Tue 07:29:00 AM -16.0093 -51.8957 146° Southeast  Level Estimated
Tue 07:30:00 AM -16.1141 -51.8230 146° Southeast  Level Estimated
Tue 07:31:00 AM -16.2190 -51.7503 146° Southeast  Level Estimated
Tue 07:32:00 AM -16.3237 -51.6774 146° Southeast  Level Estimated
Tue 07:33:00 AM -16.4285 -51.6046 146° Southeast  Level Estimated
Tue 07:34:00 AM -16.5332 -51.5316 146° Southeast  Level Estimated
Tue 07:35:00 AM -16.6380 -51.4585 146° Southeast  Level Estimated
Tue 07:36:00 AM -16.7426 -51.3854 146° Southeast  Level Estimated
Tue 07:37:00 AM -16.8473 -51.3122 146° Southeast  Level Estimated
Tue 07:38:00 AM -16.9519 -51.2389 146° Southeast  Level Estimated
Tue 07:39:00 AM -17.0565 -51.1655 146° Southeast  Level Estimated
Tue 07:40:00 AM -17.1611 -51.0921 146° Southeast  Level Estimated
Tue 07:41:00 AM -17.2657 -51.0185 146° Southeast  Level Estimated
Tue 07:42:00 AM -17.3702 -50.9449 146° Southeast  Level Estimated
Tue 07:43:00 AM -17.4747 -50.8712 146° Southeast  Level Estimated
Tue 07:44:00 AM -17.5790 -50.7976 146° Southeast  Level Estimated
Tue 07:45:00 AM -17.6833 -50.7238 146° Southeast  Level Estimated
Tue 07:46:00 AM -17.7875 -50.6500 146° Southeast  Level Estimated
Tue 07:47:00 AM -17.8917 -50.5760 146° Southeast  Level Estimated
Tue 07:48:00 AM -17.9959 -50.5020 146° Southeast  Level Estimated
Tue 07:49:00 AM -18.1001 -50.4280 146° Southeast  Level Estimated
Tue 07:50:00 AM -18.2042 -50.3538 146° Southeast  Level Estimated
Tue 07:50:36 AM -18.6340 -50.1740 146° Southeast 458 527 35,000  Level FlightAware ADS-B
Tue 07:51:00 AM -18.3083 -50.2795 146° Southeast  Level Estimated
Tue 07:51:13 AM -18.6960 -50.1230 142° Southeast 458 527 35,000  Level FlightAware ADS-B
Tue 07:51:49 AM -18.7560 -50.0750 143° Southeast 458 527 35,000  Level FlightAware ADS-B
Tue 07:52:21 AM -18.8100 -50.0310 142° Southeast 458 527 35,000  Level FlightAware ADS-B
Tue 07:52:58 AM -18.8730 -49.9800 143° Southeast 459 528 35,000  Level FlightAware ADS-B
Tue 07:53:34 AM -18.9330 -49.9320 143° Southeast 459 528 35,000  Level FlightAware ADS-B
Tue 07:54:07 AM -18.9880 -49.8870 142° Southeast 459 528 35,000  Level FlightAware ADS-B
Tue 07:54:42 AM -19.0470 -49.8390 142° Southeast 460 529 35,000  Level FlightAware ADS-B
Tue 07:55:16 AM -19.1060 -49.7910 142° Southeast 461 531 35,000  Level FlightAware ADS-B
Tue 07:55:54 AM -19.1700 -49.7380 142° Southeast 461 531 35,000  Level FlightAware ADS-B
Tue 07:56:26 AM -19.2240 -49.6930 142° Southeast 463 533 35,000  Level FlightAware ADS-B
Tue 07:57:02 AM -19.2840 -49.6430 142° Southeast 463 533 35,000  Level FlightAware ADS-B
Tue 07:57:38 AM -19.3420 -49.5940 141° Southeast 463 533 35,000  Level FlightAware ADS-B
Tue 07:58:14 AM -19.4050 -49.5400 141° Southeast 464 534 35,000  Level FlightAware ADS-B
Tue 07:58:46 AM -19.4590 -49.4950 142° Southeast 466 536 35,000  Level FlightAware ADS-B
Tue 07:59:22 AM -19.5180 -49.4450 141° Southeast 466 536 35,000  Level FlightAware ADS-B
Tue 07:59:55 AM -19.5730 -49.3990 142° Southeast 466 536 35,000  Level FlightAware ADS-B
Tue 08:00:34 AM -19.6280 -49.3520 141° Southeast 466 536 35,000  Level FlightAware ADS-B
Tue 08:01:12 AM -19.7050 -49.2880 142° Southeast 467 537 35,000  Level FlightAware ADS-B
Tue 08:01:49 AM -19.7680 -49.2350 142° Southeast 466 536 35,000  Level FlightAware ADS-B
Tue 08:02:21 AM -19.8220 -49.1890 141° Southeast 466 536 35,000  Level FlightAware ADS-B
Tue 08:02:47 AM -19.8660 -49.1510 141° Southeast 466 536 35,000  Level FlightAware ADS-B
Tue 08:03:35 AM -19.9470 -49.0830 142° Southeast 467 537 35,000  Level FlightAware ADS-B
Tue 08:04:10 AM -20.0060 -49.0330 141° Southeast 468 539 35,000  Level FlightAware ADS-B
Tue 08:04:45 AM -20.0660 -48.9820 141° Southeast 468 539 35,000  Level FlightAware ADS-B
Tue 08:05:21 AM -20.1260 -48.9310 141° Southeast 468 539 35,000  Level FlightAware ADS-B
Tue 08:05:57 AM -20.1870 -48.8790 141° Southeast 468 539 35,000  Level FlightAware ADS-B
Tue 08:06:30 AM -20.2430 -48.8310 141° Southeast 467 537 35,000  Level FlightAware ADS-B
Tue 08:07:05 AM -20.3030 -48.7800 141° Southeast 466 536 35,000  Level FlightAware ADS-B
Tue 08:07:41 AM -20.3690 -48.7380 149° Southeast 463 533 35,000  Level FlightAware ADS-B
Tue 08:08:15 AM -20.4340 -48.7030 153° Southeast 463 533 35,000  Level FlightAware ADS-B
Tue 08:08:51 AM -20.5040 -48.6660 154° Southeast 465 535 35,000  Level FlightAware ADS-B
Tue 08:09:27 AM -20.5720 -48.6300 154° Southeast 465 535 35,000  Level FlightAware ADS-B
Tue 08:10:01 AM -20.6390 -48.5950 154° Southeast 464 534 35,000  Level FlightAware ADS-B
Tue 08:10:37 AM -20.7090 -48.5570 153° Southeast 465 535 35,000  Level FlightAware ADS-B
Tue 08:11:11 AM -20.7720 -48.5230 153° Southeast 466 536 35,000  Level FlightAware ADS-B
Tue 08:11:52 AM -20.8390 -48.4870 153° Southeast 467 537 35,000  Level FlightAware ADS-B
Tue 08:12:29 AM -20.9250 -48.4410 153° Southeast 467 537 35,000  Level FlightAware ADS-B
Tue 08:13:05 AM -20.9940 -48.4040 153° Southeast 466 536 35,000  Level FlightAware ADS-B
Tue 08:13:43 AM -21.0680 -48.3640 153° Southeast 465 535 35,000  Level FlightAware ADS-B
Tue 08:14:17 AM -21.1270 -48.3200 145° Southeast 471 542 35,000  Level FlightAware ADS-B
Tue 08:14:55 AM -21.1860 -48.2540 134° Southeast 475 547 35,000  Level FlightAware ADS-B
Tue 08:15:31 AM -21.2400 -48.1930 134° Southeast 474 545 35,000  Level FlightAware ADS-B
Tue 08:16:03 AM -21.2880 -48.1390 134° Southeast 475 547 35,000  Level FlightAware ADS-B
Tue 08:16:39 AM -21.3430 -48.0760 133° Southeast 476 548 35,000  Level FlightAware ADS-B
Tue 08:17:11 AM -21.3870 -48.0260 133° Southeast 476 548 35,000  Level FlightAware ADS-B
Tue 08:17:43 AM -21.4400 -47.9660 134° Southeast 476 548 35,000  Level FlightAware ADS-B
Tue 08:18:17 AM -21.4910 -47.9090 134° Southeast 476 548 35,000  Level FlightAware ADS-B
Tue 08:18:53 AM -21.5450 -47.8480 134° Southeast 476 548 35,000  Level FlightAware ADS-B
Tue 08:19:31 AM -21.6030 -47.7810 133° Southeast 477 549 35,000  Level FlightAware ADS-B
Tue 08:20:03 AM -21.6510 -47.7270 134° Southeast 477 549 35,000  Level FlightAware ADS-B
Tue 08:20:37 AM -21.7040 -47.6670 134° Southeast 476 548 35,000  Level FlightAware ADS-B
Tue 08:21:14 AM -21.7590 -47.6040 133° Southeast 475 547 35,000 -338 Level FlightAware ADS-B
Tue 08:21:48 AM -21.8090 -47.5470 133° Southeast 470 541 34,600 -1,183 Descending FlightAware ADS-B
Tue 08:22:25 AM -21.8660 -47.4850 135° Southeast 470 541 33,600 -1,652 Descending FlightAware ADS-B
Tue 08:22:57 AM -21.9230 -47.4410 144° Southeast 465 535 32,700 -1,941 Descending FlightAware ADS-B
Tue 08:23:33 AM -21.9930 -47.4030 153° Southeast 455 524 31,400 -2,167 Descending FlightAware ADS-B
Tue 08:24:09 AM -22.0590 -47.3690 154° Southeast 449 517 30,100 -2,118 Descending FlightAware ADS-B
Tue 08:24:41 AM -22.1200 -47.3380 155° Southeast 443 510 29,000 -2,029 Descending FlightAware ADS-B
Tue 08:25:17 AM -22.1840 -47.3040 154° Southeast 436 502 27,800 -2,000 Descending FlightAware ADS-B
Tue 08:25:50 AM -22.2420 -47.2740 154° Southeast 430 495 26,700 -2,000 Descending FlightAware ADS-B
Tue 08:26:29 AM -22.3130 -47.2360 154° Southeast 425 489 25,400 -2,055 Descending FlightAware ADS-B
Tue 08:27:03 AM -22.3750 -47.2040 154° Southeast 420 483 24,200 -2,000 Descending FlightAware ADS-B
Tue 08:27:41 AM -22.4400 -47.1700 154° Southeast 415 478 23,000 -1,886 Descending FlightAware ADS-B
Tue 08:28:13 AM -22.4960 -47.1400 154° Southeast 411 473 22,000 -1,941 Descending FlightAware ADS-B
Tue 08:28:49 AM -22.5560 -47.1090 154° Southeast 408 470 20,800 -2,167 Descending FlightAware ADS-B
Tue 08:29:25 AM -22.6180 -47.0800 157° South 411 473 19,400 -2,118 Descending FlightAware ADS-B
Tue 08:29:57 AM -22.6760 -47.0560 159° South 407 468 18,400 -1,875 Descending FlightAware ADS-B
Tue 08:30:29 AM -22.7310 -47.0330 159° South 402 463 17,400 -1,833 Descending FlightAware ADS-B
Tue 08:31:09 AM -22.8010 -47.0040 159° South 394 453 16,200 -1,816 Descending FlightAware ADS-B
Tue 08:31:45 AM -22.8620 -46.9780 159° South 388 447 15,100 -1,543 Descending FlightAware ADS-B
Tue 08:32:19 AM -22.9170 -46.9550 159° South 353 406 14,400 -1,543 Descending FlightAware ADS-B
Tue 08:32:55 AM -22.9680 -46.9340 159° South 318 366 13,300 -1,500 Descending FlightAware ADS-B
Tue 08:33:27 AM -23.0110 -46.9160 159° South 279 321 12,700 -1,714 Descending FlightAware ADS-B
Tue 08:33:51 AM -23.0390 -46.9020 155° Southeast 288 331 11,700 -2,045 Descending FlightAware ADS-B
Tue 08:34:11 AM -23.0590 -46.8850 142° Southeast 284 327 11,200 -1,091 Descending FlightAware ADS-B
Tue 08:34:46 AM -23.0850 -46.8450 125° Southeast 272 313 10,700 -917 Descending FlightAware ADS-B
Tue 08:35:23 AM -23.0950 -46.7980 103° East 264 304 10,100 -737 Descending FlightAware ADS-B
Tue 08:35:43 AM -23.0980 -46.7700 97° East 261 300 10,000 -750 Descending FlightAware ADS-B
Tue 08:36:03 AM -23.1010 -46.7440 97° East 259 298 9,600 -1,125 Descending FlightAware ADS-B
Tue 08:36:15 AM -23.1030 -46.7280 98° East 257 296 9,400 -1,167 Descending FlightAware ADS-B
Tue 08:36:39 AM -23.1070 -46.6980 98° East 254 292 8,900 -1,200 Descending FlightAware ADS-B
Tue 08:37:00 AM -23.1140 -46.6730 107° East 250 288 8,500 -1,059 Descending FlightAware ADS-B
Tue 08:37:13 AM -23.1210 -46.6580 117° Southeast 248 285 8,300 -1,059 Descending FlightAware ADS-B
Tue 08:37:17 AM -23.1250 -46.6540 137° Southeast 246 283 8,200 -1,286 Descending FlightAware ADS-B
Tue 08:37:27 AM -23.1350 -46.6480 151° Southeast 247 284 8,000 -667 Descending FlightAware ADS-B
Tue 08:37:35 AM -23.1430 -46.6460 167° South 252 290 8,000 -500 Level FlightAware ADS-B
Tue 08:38:03 AM -23.1740 -46.6570 198° South 256 295 7,700 -706 Descending FlightAware ADS-B
Tue 08:38:09 AM -23.1790 -46.6640 232° Southwest 258 297 7,600 -1,500 Descending FlightAware ADS-B
Tue 08:38:15 AM -23.1820 -46.6710 245° Southwest 257 296 7,400 -1,909 Descending FlightAware ADS-B
Tue 08:38:31 AM -23.1880 -46.6880 249° West 250 288 6,900 -1,941 Descending FlightAware ADS-B
Tue 08:38:49 AM -23.1950 -46.7090 250° West 237 273 6,300 -1,875 Descending FlightAware ADS-B
Tue 08:39:03 AM -23.2000 -46.7240 250° West 227 261 5,900 -1,400 Descending FlightAware ADS-B
Tue 08:39:19 AM -23.2060 -46.7410 249° West 222 255 5,600 -750 Descending FlightAware ADS-B
Tue 08:39:27 AM -23.2130 -46.7480 223° Southwest 224 258 5,600  Level FlightAware ADS-B
Tue 08:39:31 AM -23.2150 -46.7490 205° Southwest 220 253 5,600  Level FlightAware ADS-B
Tue 08:39:39 AM -23.2220 -46.7530 208° Southwest 215 247 5,600  Level FlightAware ADS-B
Tue 08:40:12 AM -23.2480 -46.7590 192° South 213 245 5,600  Level FlightAware ADS-B
Tue 08:40:35 AM -23.2770 -46.7660 193° South 213 245 5,600  Level FlightAware ADS-B
Tue 08:40:43 AM -23.2850 -46.7670 187° South 214 246 5,600  Level FlightAware ADS-B
Tue 08:41:05 AM -23.3060 -46.7620 168° South 208 239 5,600  Level FlightAware ADS-B
Tue 08:41:21 AM -23.3200 -46.7570 162° South 208 239 5,600  Level FlightAware ADS-B
Tue 08:41:47 AM -23.3450 -46.7490 164° South 209 241 5,600  Level FlightAware ADS-B
Tue 08:42:03 AM -23.3600 -46.7440 163° South 209 241 5,600  Level FlightAware ADS-B
Tue 08:42:23 AM -23.3780 -46.7380 163° South 210 242 5,600 -97 Level FlightAware ADS-B
Tue 08:43:05 AM -23.4120 -46.7260 162° South 208 239 5,500 -348 Descending FlightAware ADS-B
Tue 08:43:32 AM -23.4350 -46.7180 162° South 205 236 5,200 -545 Descending FlightAware ADS-B
Tue 08:43:49 AM -23.4490 -46.7140 165° South 198 228 5,100 -140 Descending FlightAware ADS-B
Tue 08:44:15 AM -23.4690 -46.7020 151° Southeast 187 215 5,100  Level FlightAware ADS-B
Tue 08:44:23 AM -23.4720 -46.6940 112° Southeast 173 199 5,100  Level FlightAware ADS-B
Tue 08:44:49 AM -23.4800 -46.6750 115° Southeast 167 192 5,100  Level FlightAware ADS-B
Tue 08:45:07 AM -23.4830 -46.6610 103° East 166 191 5,100 -450 Level FlightAware ADS-B
Tue 08:45:29 AM -23.4790 -46.6360 80° East 167 192 4,800 -947 Descending FlightAware ADS-B
Tue 08:45:45 AM -23.4750 -46.6220 73° East 161 185 4,500 -833 Descending FlightAware ADS-B
Tue 08:46:05 AM -23.4710 -46.6070 74° East 161 185 4,300 -732 Descending FlightAware ADS-B
Tue 08:46:26 AM -23.4670 -46.5910 75° East 161 185 4,000 -938 Descending FlightAware ADS-B
Tue 08:46:37 AM -23.4640 -46.5820 70° East 160 184 3,800 -857 Descending FlightAware ADS-B
Tue 08:47:01 AM -23.4600 -46.5640 76° East 155 178 3,500 -818 Descending FlightAware ADS-B
Tue 08:47:21 AM -23.4560 -46.5490 74° East 150 173 3,200 -789 Descending FlightAware ADS-B
Tue 08:47:39 AM -23.4520 -46.5360 71° East 147 169 3,000 -649 Descending FlightAware ADS-B
Tue 08:47:58 AM -23.4490 -46.5240 75° East 150 173 2,800 -649 Descending FlightAware ADS-B
Tue 08:48:16 AM -23.4460 -46.5140 72° East 154 177 2,600 -875 Descending FlightAware ADS-B
Tue 08:48:46 AM -23.4390 -46.4880 74° East 155 178 2,100 -1,000 Descending FlightAware ADS-B
Tue 08:49:05 AM -23.4350 -46.4740 73° East 120 138 -6,632 Descending FlightAware ADS-B
Tue 08:49:20 AM -23.4340 -46.4690 78° East 78 90  Level FlightAware ADS-B
Tue 08:49:47 AM -23.4310 -46.4600 70° East 78 90  Level FlightAware ADS-B

Login

Don't have an account? Register now (free) for customized features, flight alerts, and more!